createdAt,value
2024-03-05T00:01:05.876Z,22.88
2024-03-05T00:03:43.348Z,21.63
2024-03-05T00:06:11.112Z,23.88
2024-03-05T00:08:38.761Z,23.33
2024-03-05T00:11:22.287Z,23.33
2024-03-05T00:16:21.950Z,23.08
2024-03-05T00:18:49.245Z,23.35
2024-03-05T00:21:21.439Z,23.10
2024-03-05T00:23:53.424Z,21.67
2024-03-05T00:26:31.156Z,21.38
2024-03-05T00:28:58.464Z,22.23
2024-03-05T00:31:26.782Z,22.63
2024-03-05T00:33:54.284Z,23.80
2024-03-05T00:36:22.057Z,23.80
2024-03-05T00:38:54.453Z,22.52
2024-03-05T00:41:26.452Z,24.35
2024-03-05T00:43:55.365Z,22.77
2024-03-05T00:46:28.063Z,24.40
2024-03-05T00:48:59.378Z,22.85
2024-03-05T00:51:31.989Z,21.48
2024-03-05T00:53:59.170Z,23.08
2024-03-05T00:56:28.491Z,23.25
2024-03-05T00:59:01.432Z,24.08
2024-03-05T01:01:29.204Z,23.77
2024-03-05T01:03:56.716Z,23.63
2024-03-05T01:06:24.525Z,22.73
2024-03-05T01:08:51.928Z,23.33
2024-03-05T01:11:19.671Z,22.48
2024-03-05T01:13:51.475Z,25.67
2024-03-05T01:16:25.109Z,23.10
2024-03-05T01:18:52.473Z,23.75
2024-03-05T01:21:24.826Z,21.70
2024-03-05T01:23:52.174Z,23.08
2024-03-05T01:26:19.885Z,23.30
2024-03-05T01:28:47.258Z,24.05
2024-03-05T01:31:21.289Z,22.73
2024-03-05T01:33:48.695Z,24.55
2024-03-05T01:36:16.537Z,22.70
2024-03-05T01:38:43.883Z,21.85
2024-03-05T01:41:11.577Z,22.48
2024-03-05T01:43:38.973Z,22.23
2024-03-05T01:46:11.560Z,23.95
2024-03-05T01:48:43.060Z,21.30
2024-03-05T01:51:12.297Z,24.70
2024-03-05T01:53:39.913Z,24.15
2024-03-05T01:56:12.770Z,23.40
2024-03-05T01:58:41.354Z,25.45
2024-03-05T02:01:15.048Z,24.73
2024-03-05T02:03:43.992Z,26.23
2024-03-05T02:06:16.739Z,24.88
2024-03-05T02:08:44.291Z,24.95
2024-03-05T02:11:13.385Z,26.83
2024-03-05T02:13:41.021Z,25.30
2024-03-05T02:16:08.831Z,25.08
2024-03-05T02:18:43.442Z,23.70
2024-03-05T02:21:21.180Z,23.50
2024-03-05T02:23:52.439Z,23.23
2024-03-05T02:26:24.422Z,25.85
2024-03-05T02:28:53.116Z,25.77
2024-03-05T02:31:26.584Z,25.42
2024-03-05T02:33:58.444Z,26.88
2024-03-05T02:36:30.903Z,23.67
2024-03-05T02:38:58.237Z,23.05
2024-03-05T02:41:36.490Z,23.90
2024-03-05T02:44:04.043Z,23.13
2024-03-05T02:46:35.964Z,24.35
2024-03-05T02:49:03.311Z,25.65
2024-03-05T02:51:36.123Z,22.92
2024-03-05T02:54:03.532Z,23.90
2024-03-05T02:56:35.795Z,22.88
2024-03-05T02:59:05.721Z,24.92
2024-03-05T03:01:36.261Z,24.42
2024-03-05T03:04:03.719Z,21.88
2024-03-05T03:06:35.841Z,23.13
2024-03-05T03:09:05.084Z,23.88
2024-03-05T03:11:33.553Z,21.45
2024-03-05T03:14:00.992Z,23.30
2024-03-05T03:16:28.941Z,20.67
2024-03-05T03:18:56.292Z,21.65
2024-03-05T03:21:24.064Z,20.52
2024-03-05T03:23:52.805Z,20.27
2024-03-05T03:26:21.091Z,19.67
2024-03-05T03:28:48.487Z,19.35
2024-03-05T03:31:18.230Z,20.77
2024-03-05T03:33:45.651Z,19.70
2024-03-05T03:36:22.882Z,18.77
2024-03-05T03:38:50.556Z,19.98
2024-03-05T03:41:20.008Z,20.58
2024-03-05T03:43:47.548Z,18.83
2024-03-05T03:46:16.033Z,18.85
2024-03-05T03:48:43.431Z,18.83
2024-03-05T03:51:11.311Z,18.75
2024-03-05T03:53:38.738Z,18.25
2024-03-05T03:56:07.132Z,17.50
2024-03-05T03:58:35.983Z,16.38
2024-03-05T04:01:04.605Z,18.08
2024-03-05T04:03:32.097Z,18.10
2024-03-05T04:05:59.867Z,20.77
2024-03-05T04:08:27.234Z,17.42
2024-03-05T04:10:57.803Z,18.45
2024-03-05T04:13:25.177Z,18.23
2024-03-05T04:15:55.014Z,18.92
2024-03-05T04:18:22.404Z,20.25
2024-03-05T04:20:50.495Z,19.15
2024-03-05T04:23:18.194Z,19.13
2024-03-05T04:25:45.991Z,18.85
2024-03-05T04:28:13.512Z,19.77
2024-03-05T04:30:41.968Z,18.55
2024-03-05T04:33:10.955Z,20.58
2024-03-05T04:35:38.921Z,20.38
2024-03-05T04:38:09.198Z,21.88
2024-03-05T04:40:37.341Z,21.27
2024-03-05T04:43:05.268Z,21.55
2024-03-05T04:45:38.651Z,22.33
2024-03-05T04:48:06.532Z,21.23
2024-03-05T04:50:36.303Z,19.15
2024-03-05T04:53:03.881Z,20.80
2024-03-05T04:55:32.216Z,19.73
2024-03-05T04:57:59.713Z,20.08
2024-03-05T05:00:31.537Z,21.27
2024-03-05T05:02:59.192Z,20.85
2024-03-05T05:05:27.969Z,20.98
2024-03-05T05:07:59.791Z,20.42
2024-03-05T05:10:27.935Z,20.73
2024-03-05T05:12:55.768Z,19.75
2024-03-05T05:15:29.122Z,19.60
2024-03-05T05:17:56.717Z,21.40
2024-03-05T05:20:24.650Z,18.80
2024-03-05T05:22:53.325Z,19.52
2024-03-05T05:25:22.687Z,18.60
2024-03-05T05:27:50.410Z,20.42
2024-03-05T05:30:19.477Z,18.88
2024-03-05T05:32:47.692Z,19.33
2024-03-05T05:35:17.426Z,18.92
2024-03-05T05:37:44.900Z,17.83
2024-03-05T05:40:13.370Z,15.90
2024-03-05T05:42:43.305Z,19.50
2024-03-05T05:45:11.079Z,17.60
2024-03-05T05:47:39.280Z,18.73
2024-03-05T05:50:08.678Z,18.42
2024-03-05T05:52:36.194Z,16.40
2024-03-05T05:55:04.855Z,18.38
2024-03-05T05:57:32.372Z,16.40
2024-03-05T06:00:02.232Z,16.77
2024-03-05T06:02:30.023Z,16.52
2024-03-05T06:04:58.325Z,18.67
2024-03-05T06:07:25.716Z,16.50
2024-03-05T06:09:54.182Z,16.20
2024-03-05T06:12:24.086Z,16.10
2024-03-05T06:14:53.266Z,15.95
2024-03-05T06:17:22.332Z,16.13
2024-03-05T06:19:50.571Z,15.02
2024-03-05T06:22:23.254Z,15.48
2024-03-05T06:24:54.833Z,16.08
2024-03-05T06:27:22.508Z,14.23
2024-03-05T06:29:50.485Z,18.73
2024-03-05T06:32:17.872Z,15.98
2024-03-05T06:34:47.083Z,15.27
2024-03-05T06:37:16.442Z,16.13
2024-03-05T06:39:44.841Z,15.38
2024-03-05T06:42:12.452Z,14.32
2024-03-05T06:44:42.825Z,16.02
2024-03-05T06:47:13.157Z,15.25
2024-03-05T06:49:41.037Z,15.05
2024-03-05T06:52:10.207Z,16.42
2024-03-05T06:54:38.275Z,13.88
2024-03-05T06:57:06.119Z,14.90
2024-03-05T06:59:34.343Z,14.63
2024-03-05T07:02:02.418Z,15.32
2024-03-05T07:04:30.802Z,14.52
2024-03-05T07:06:58.678Z,15.00
2024-03-05T07:09:29.801Z,15.50
2024-03-05T07:12:00.698Z,14.20
2024-03-05T07:14:28.978Z,15.20
2024-03-05T07:16:56.670Z,14.73
2024-03-05T07:19:24.873Z,13.85
2024-03-05T07:21:53.072Z,14.85
2024-03-05T07:24:21.054Z,15.27
2024-03-05T07:26:56.765Z,15.45
2024-03-05T07:29:32.472Z,14.07
2024-03-05T07:32:00.009Z,14.48
2024-03-05T07:34:27.902Z,14.93
2024-03-05T07:36:58.923Z,13.60
2024-03-05T07:39:26.938Z,16.08
2024-03-05T07:41:55.826Z,15.05
2024-03-05T07:44:23.740Z,15.35
2024-03-05T07:46:51.491Z,15.32
2024-03-05T07:49:22.449Z,14.93
2024-03-05T07:51:52.270Z,14.20
2024-03-05T07:54:20.050Z,15.00
2024-03-05T07:56:48.124Z,13.98
2024-03-05T07:59:17.690Z,12.90
2024-03-05T08:01:48.582Z,13.73
2024-03-05T08:04:16.980Z,14.77
2024-03-05T08:06:44.928Z,12.45
2024-03-05T08:09:13.263Z,14.48
2024-03-05T08:11:41.231Z,13.63
2024-03-05T08:14:09.954Z,13.23
2024-03-05T08:16:40.396Z,12.55
2024-03-05T08:19:09.158Z,13.50
2024-03-05T08:21:36.391Z,12.63
2024-03-05T08:24:07.489Z,13.23
2024-03-05T08:26:35.378Z,11.07
2024-03-05T08:29:03.559Z,12.15
2024-03-05T08:31:31.529Z,11.63
2024-03-05T08:34:01.246Z,13.07
2024-03-05T08:36:28.953Z,12.43
2024-03-05T08:38:59.913Z,11.85
2024-03-05T08:41:27.691Z,13.15
2024-03-05T08:43:56.047Z,12.18
2024-03-05T08:46:29.511Z,11.98
2024-03-05T08:48:57.803Z,11.88
2024-03-05T08:51:27.353Z,11.23
2024-03-05T08:53:56.973Z,10.48
2024-03-05T08:56:24.542Z,9.88
2024-03-05T08:58:54.852Z,9.63
2024-03-05T09:01:22.939Z,9.20
2024-03-05T09:03:51.070Z,9.68
2024-03-05T09:06:22.755Z,11.25
2024-03-05T09:08:52.841Z,10.38
2024-03-05T09:11:22.700Z,9.82
2024-03-05T09:13:50.616Z,11.85
2024-03-05T09:16:19.250Z,11.15
2024-03-05T09:18:48.362Z,10.57
2024-03-05T09:21:16.277Z,10.90
2024-03-05T09:23:45.313Z,11.02
2024-03-05T09:26:14.590Z,11.18
2024-03-05T09:28:42.967Z,11.43
2024-03-05T09:31:10.659Z,11.15
2024-03-05T09:33:38.384Z,10.60
2024-03-05T09:36:07.040Z,12.15
2024-03-05T09:38:35.401Z,11.10
2024-03-05T09:41:06.725Z,11.27
2024-03-05T09:43:41.588Z,10.77
2024-03-05T09:46:10.121Z,11.55
2024-03-05T09:48:38.674Z,10.30
2024-03-05T09:51:09.496Z,11.68
2024-03-05T09:53:38.608Z,10.75
2024-03-05T09:56:07.614Z,9.77
2024-03-05T09:58:39.131Z,10.68
2024-03-05T10:01:08.088Z,11.48
2024-03-05T10:03:38.134Z,11.85
2024-03-05T10:06:07.892Z,10.13
2024-03-05T10:08:36.751Z,12.02
2024-03-05T10:11:05.726Z,12.30
2024-03-05T10:13:37.205Z,11.13
2024-03-05T10:16:15.298Z,11.52
2024-03-05T10:21:17.645Z,10.82
2024-03-05T10:23:46.642Z,11.30
2024-03-05T10:26:24.445Z,10.77
2024-03-05T10:28:56.498Z,10.98
2024-03-05T10:31:25.587Z,10.88
2024-03-05T10:33:55.322Z,11.13
2024-03-05T10:36:30.202Z,10.57
2024-03-05T10:39:01.966Z,11.40
2024-03-05T10:41:39.289Z,10.93
2024-03-05T10:44:19.400Z,11.38
2024-03-05T10:46:48.490Z,10.88
2024-03-05T10:49:17.512Z,10.77
2024-03-05T10:51:47.024Z,12.73
2024-03-05T10:54:15.820Z,10.48
2024-03-05T10:56:48.889Z,9.52
2024-03-05T10:59:19.043Z,10.27
2024-03-05T11:01:50.075Z,10.68
2024-03-05T11:04:25.838Z,11.43
2024-03-05T11:06:56.837Z,10.98
2024-03-05T11:09:25.367Z,9.93
2024-03-05T11:11:58.516Z,9.75
2024-03-05T11:14:28.944Z,11.10
2024-03-05T11:17:04.528Z,10.68
2024-03-05T11:19:32.981Z,11.05
2024-03-05T11:22:00.668Z,12.25
2024-03-05T11:24:28.447Z,11.70
2024-03-05T11:27:02.997Z,11.27
2024-03-05T11:29:38.611Z,11.57
2024-03-05T11:32:11.305Z,11.68
2024-03-05T11:34:46.616Z,12.10
2024-03-05T11:37:17.000Z,11.32
2024-03-05T11:39:47.718Z,11.63
2024-03-05T11:42:18.797Z,10.38
2024-03-05T11:44:57.881Z,10.38
2024-03-05T11:47:26.343Z,9.25
2024-03-05T11:49:55.438Z,10.43
2024-03-05T11:52:25.423Z,11.45
2024-03-05T11:55:01.252Z,11.15
2024-03-05T11:57:29.244Z,11.77
2024-03-05T11:59:59.158Z,10.75
2024-03-05T12:02:26.865Z,11.27
2024-03-05T12:05:03.949Z,11.80
2024-03-05T12:07:31.501Z,10.25
2024-03-05T12:09:59.565Z,11.93
2024-03-05T12:12:27.801Z,10.02
2024-03-05T12:14:56.838Z,10.13
2024-03-05T12:17:37.596Z,11.50
2024-03-05T12:20:10.504Z,9.30
2024-03-05T12:22:39.227Z,9.93
2024-03-05T12:25:15.723Z,12.45
2024-03-05T12:27:51.081Z,11.60
2024-03-05T12:30:35.084Z,10.77
2024-03-05T12:33:07.643Z,10.80
2024-03-05T12:35:37.576Z,11.30
2024-03-05T12:38:25.156Z,11.63
2024-03-05T12:41:04.428Z,12.93
2024-03-05T12:43:32.516Z,11.70
2024-03-05T12:46:01.110Z,11.27
2024-03-05T12:48:30.001Z,11.52
2024-03-05T12:51:01.035Z,10.73
2024-03-05T12:53:28.671Z,11.13
2024-03-05T12:56:03.261Z,10.80
2024-03-05T12:58:42.527Z,10.90
2024-03-05T13:01:10.930Z,10.40
2024-03-05T13:03:39.986Z,9.98
2024-03-05T13:06:10.996Z,10.13
2024-03-05T13:08:39.690Z,10.27
2024-03-05T13:11:08.086Z,10.18
2024-03-05T13:13:35.652Z,10.38
2024-03-05T13:16:04.347Z,10.15
2024-03-05T13:18:31.877Z,10.25
2024-03-05T13:21:01.320Z,10.70
2024-03-05T13:23:30.993Z,10.75
2024-03-05T13:25:59.812Z,10.85
2024-03-05T13:28:30.320Z,10.50
2024-03-05T13:30:58.685Z,10.98
2024-03-05T13:33:27.030Z,10.70
2024-03-05T13:35:54.756Z,9.98
2024-03-05T13:38:24.476Z,10.00
2024-03-05T13:40:52.672Z,10.93
2024-03-05T13:43:20.872Z,10.25
2024-03-05T13:45:49.117Z,9.23
2024-03-05T13:48:17.277Z,10.45
2024-03-05T13:50:44.632Z,9.73
2024-03-05T13:53:15.337Z,9.10
2024-03-05T13:55:47.746Z,9.43
2024-03-05T13:58:15.791Z,9.52
2024-03-05T14:00:43.637Z,9.52
2024-03-05T14:03:13.537Z,9.90
2024-03-05T14:05:41.645Z,9.70
2024-03-05T14:08:10.484Z,10.43
2024-03-05T14:10:38.652Z,10.25
2024-03-05T14:13:09.081Z,10.30
2024-03-05T14:15:36.880Z,10.30
2024-03-05T14:18:08.099Z,10.70
2024-03-05T14:20:36.396Z,10.70
2024-03-05T14:23:12.574Z,10.05
2024-03-05T14:25:50.950Z,11.02
2024-03-05T14:31:00.604Z,10.07
2024-03-05T14:33:39.517Z,10.65
2024-03-05T14:36:28.738Z,10.88
2024-03-05T14:39:01.710Z,10.02
2024-03-05T14:41:44.323Z,11.15
2024-03-05T14:44:40.390Z,11.85
2024-03-05T14:47:13.573Z,11.20
2024-03-05T14:49:45.961Z,11.18
2024-03-05T14:52:19.448Z,10.50
2024-03-05T14:54:51.845Z,11.50
2024-03-05T14:57:22.651Z,11.35
2024-03-05T15:00:10.839Z,11.50
2024-03-05T15:02:42.655Z,12.05
2024-03-05T15:05:23.053Z,22.10
2024-03-05T15:08:11.062Z,18.95
2024-03-05T15:10:44.672Z,14.30
2024-03-05T15:13:14.437Z,12.43
2024-03-05T15:15:57.824Z,13.43
2024-03-05T15:18:40.593Z,11.55
2024-03-05T15:21:38.595Z,10.50
2024-03-05T15:24:16.585Z,11.80
2024-03-05T15:27:04.345Z,10.90
2024-03-05T15:29:47.467Z,12.23
2024-03-05T15:32:23.631Z,12.23
2024-03-05T15:34:56.330Z,11.60
2024-03-05T15:37:25.288Z,11.80
2024-03-05T15:39:52.902Z,11.30
2024-03-05T15:42:21.073Z,11.05
2024-03-05T15:44:48.486Z,11.70
2024-03-05T15:47:16.516Z,11.85
2024-03-05T15:49:59.594Z,12.35
2024-03-05T15:52:31.556Z,11.95
2024-03-05T15:54:59.326Z,11.60
2024-03-05T15:57:33.126Z,16.38
2024-03-05T16:00:01.643Z,14.13
2024-03-05T16:02:29.820Z,12.77
2024-03-05T16:05:17.826Z,15.20
2024-03-05T16:07:57.026Z,17.65
2024-03-05T16:10:35.587Z,17.40
2024-03-05T16:13:11.515Z,16.95
2024-03-05T16:18:08.387Z,13.35
2024-03-05T16:20:41.005Z,13.13
2024-03-05T16:23:09.480Z,12.32
2024-03-05T16:25:41.415Z,12.10
2024-03-05T16:28:11.011Z,11.73
2024-03-05T16:30:39.462Z,10.80
2024-03-05T16:33:07.974Z,10.68
2024-03-05T16:35:40.981Z,10.55
2024-03-05T16:38:13.136Z,12.00
2024-03-05T16:40:40.992Z,11.43
2024-03-05T16:43:08.673Z,12.13
2024-03-05T16:45:37.059Z,11.77
2024-03-05T16:48:11.724Z,12.55
2024-03-05T16:50:44.987Z,11.20
2024-03-05T16:53:12.815Z,11.30
2024-03-05T16:55:40.201Z,11.35
2024-03-05T16:58:20.451Z,13.45
2024-03-05T17:00:55.153Z,13.48
2024-03-05T17:03:27.024Z,12.52
2024-03-05T17:05:59.981Z,11.55
2024-03-05T17:08:31.989Z,11.65
2024-03-05T17:10:59.530Z,13.77
2024-03-05T17:13:33.223Z,12.32
2024-03-05T17:16:01.588Z,11.15
2024-03-05T17:18:29.951Z,12.13
2024-03-05T17:20:59.546Z,12.93
2024-03-05T17:23:32.413Z,12.05
2024-03-05T17:26:13.793Z,11.95
2024-03-05T17:28:47.493Z,12.93
2024-03-05T17:31:18.692Z,12.43
2024-03-05T17:34:04.651Z,12.13
2024-03-05T17:36:51.440Z,11.75
2024-03-05T17:39:21.378Z,12.93
2024-03-05T17:41:53.372Z,12.85
2024-03-05T17:44:23.015Z,12.23
2024-03-05T17:46:56.149Z,11.60
2024-03-05T17:49:35.136Z,12.77
2024-03-05T17:52:05.718Z,12.07
2024-03-05T17:54:33.796Z,12.10
2024-03-05T17:57:01.172Z,15.13
2024-03-05T17:59:33.973Z,13.90
2024-03-05T18:02:01.291Z,13.57
2024-03-05T18:04:42.877Z,13.63
2024-03-05T18:07:14.722Z,12.55
2024-03-05T18:09:47.736Z,15.07
2024-03-05T18:12:23.903Z,17.83
2024-03-05T18:15:11.054Z,18.05
2024-03-05T18:17:45.381Z,20.15
2024-03-05T18:20:22.374Z,17.85
2024-03-05T18:22:51.393Z,16.90
2024-03-05T18:25:24.871Z,15.95
2024-03-05T18:28:10.208Z,17.10
2024-03-05T18:30:40.480Z,17.10
2024-03-05T18:33:21.364Z,14.07
2024-03-05T18:39:04.653Z,15.43
2024-03-05T18:41:47.939Z,13.07
2024-03-05T18:44:32.011Z,16.38
2024-03-05T18:50:10.130Z,17.13
2024-03-05T18:52:51.027Z,17.13
2024-03-05T18:55:33.119Z,16.08
2024-03-05T18:58:10.496Z,16.13
2024-03-05T19:00:57.105Z,17.70
2024-03-05T19:03:29.667Z,15.55
2024-03-05T19:06:03.567Z,15.55
2024-03-05T19:08:53.807Z,16.77
2024-03-05T19:11:28.978Z,16.08
2024-03-05T19:14:08.226Z,15.77
2024-03-05T19:19:36.687Z,16.17
2024-03-05T19:22:04.515Z,16.05
2024-03-05T19:24:41.231Z,16.25
2024-03-05T19:27:16.188Z,14.93
2024-03-05T19:29:44.726Z,15.50
2024-03-05T19:32:22.413Z,15.95
2024-03-05T19:34:50.632Z,18.75
2024-03-05T19:37:36.126Z,17.67
2024-03-05T19:40:10.990Z,17.45
2024-03-05T19:42:46.911Z,16.17
2024-03-05T19:45:21.185Z,17.73
2024-03-05T19:47:54.863Z,16.40
2024-03-05T19:50:29.474Z,17.10
2024-03-05T19:53:02.518Z,16.00
2024-03-05T19:55:43.531Z,16.13
2024-03-05T19:58:22.701Z,15.50
2024-03-05T20:03:33.720Z,14.52
2024-03-05T20:06:15.187Z,16.95
2024-03-05T20:08:45.216Z,17.20
2024-03-05T20:11:24.143Z,15.88
2024-03-05T20:13:58.647Z,17.52
2024-03-05T20:16:27.582Z,16.75
2024-03-05T20:18:55.203Z,17.05
2024-03-05T20:21:23.029Z,17.50
2024-03-05T20:23:50.549Z,18.63
2024-03-05T20:26:23.185Z,16.73
2024-03-05T20:28:51.325Z,17.48
2024-03-05T20:31:20.677Z,19.10
2024-03-05T20:33:48.622Z,18.45
2024-03-05T20:36:25.391Z,19.15
2024-03-05T20:38:55.966Z,18.10
2024-03-05T20:41:24.642Z,18.05
2024-03-05T20:43:58.082Z,18.85
2024-03-05T20:46:31.440Z,18.73
2024-03-05T20:48:59.415Z,20.00
2024-03-05T20:51:27.413Z,18.65
2024-03-05T20:54:00.495Z,18.23
2024-03-05T20:56:33.126Z,16.95
2024-03-05T20:59:03.247Z,17.52
2024-03-05T21:01:41.558Z,20.02
2024-03-05T21:04:18.453Z,18.95
2024-03-05T21:06:46.466Z,18.30
2024-03-05T21:09:14.485Z,18.15
2024-03-05T21:11:42.588Z,18.08
2024-03-05T21:14:10.181Z,18.83
2024-03-05T21:16:45.558Z,18.40
2024-03-05T21:19:13.350Z,18.27
2024-03-05T21:21:49.393Z,16.73
2024-03-05T21:24:17.167Z,18.17
2024-03-05T21:29:20.928Z,16.98
2024-03-05T21:31:58.458Z,17.45
2024-03-05T21:34:26.158Z,17.50
2024-03-05T21:36:54.103Z,17.10
2024-03-05T21:39:26.485Z,17.15
2024-03-05T21:41:59.151Z,17.63
2024-03-05T21:44:34.792Z,17.45
2024-03-05T21:47:10.804Z,16.27
2024-03-05T21:49:39.512Z,16.50
2024-03-05T21:52:15.283Z,16.45
2024-03-05T21:54:45.878Z,15.30
2024-03-05T21:57:18.002Z,16.73
2024-03-05T21:59:45.460Z,17.33
2024-03-05T22:02:30.461Z,15.98
2024-03-05T22:05:02.542Z,17.10
2024-03-05T22:07:35.496Z,15.95
2024-03-05T22:10:03.807Z,17.33
2024-03-05T22:12:31.520Z,15.93
2024-03-05T22:15:03.461Z,16.25
2024-03-05T22:17:33.019Z,17.35
2024-03-05T22:20:01.099Z,16.45
2024-03-05T22:22:29.192Z,15.82
2024-03-05T22:24:57.727Z,17.05
2024-03-05T22:27:30.427Z,17.05
2024-03-05T22:29:57.921Z,16.30
2024-03-05T22:32:26.196Z,17.00
2024-03-05T22:34:55.933Z,16.10
2024-03-05T22:37:24.248Z,17.77
2024-03-05T22:39:56.696Z,17.98
2024-03-05T22:42:24.625Z,17.50
2024-03-05T22:44:52.110Z,17.70
2024-03-05T22:47:19.979Z,17.13
2024-03-05T22:49:49.240Z,16.75
2024-03-05T22:52:22.961Z,17.13
2024-03-05T22:54:50.404Z,17.60
2024-03-05T22:57:24.015Z,15.75
2024-03-05T22:59:51.420Z,18.08
2024-03-05T23:02:19.490Z,16.65
2024-03-05T23:04:47.043Z,16.25
2024-03-05T23:07:24.065Z,17.95
2024-03-05T23:09:51.444Z,16.98
2024-03-05T23:12:19.302Z,16.98
2024-03-05T23:14:46.769Z,16.90
2024-03-05T23:17:19.238Z,17.27
2024-03-05T23:19:46.827Z,16.52
2024-03-05T23:22:14.753Z,17.15
2024-03-05T23:24:47.000Z,15.73
2024-03-05T23:29:42.650Z,17.60
2024-03-05T23:32:17.810Z,15.75
2024-03-05T23:34:45.263Z,15.88
2024-03-05T23:37:18.334Z,18.00
2024-03-05T23:39:47.173Z,24.40
2024-03-05T23:42:15.225Z,25.58
2024-03-05T23:44:42.680Z,25.88
2024-03-05T23:47:15.300Z,29.08
2024-03-05T23:49:50.513Z,25.02
2024-03-05T23:52:18.351Z,33.60
2024-03-05T23:54:47.570Z,24.05
2024-03-05T23:57:22.953Z,27.83
2024-03-05T23:59:53.252Z,19.45
